Time;durP1;ratioP1;P1;durP2;ratioP2;P2;SDS_P1;SDS_P2;PMS_P1;PMS_P2;Temp;Humidity;BMP_temperature;BMP_pressure;BME280_temperature;BME280_humidity;BME280_pressure;Samples;Min_cycle;Max_cycle;Signal;HPM_P1;HPM_P2
2022/04/15 00:01:52;;;;;;;21.92;8.88;;;;;;;8.66;89.56;101251.69;6188059;23;20415;-70
2022/04/15 00:04:17;;;;;;;12.35;6.18;;;;;;;8.62;89.34;101247.78;6241398;23;20004;-70
2022/04/15 00:06:43;;;;;;;9.50;5.45;;;;;;;8.60;89.25;101252.63;6239158;23;20411;-71
2022/04/15 00:09:08;;;;;;;7.13;4.55;;;;;;;8.57;89.68;101245.72;6239770;23;20008;-70
2022/04/15 00:11:34;;;;;;;9.35;4.30;;;;;;;8.57;89.52;101251.19;6240392;23;20083;-71
2022/04/15 00:14:00;;;;;;;9.77;5.72;;;;;;;8.52;89.47;101251.88;6240876;23;20396;-72
2022/04/15 00:16:26;;;;;;;16.48;7.85;;;;;;;8.55;89.43;101259.59;6214235;23;20004;-71
2022/04/15 00:18:51;;;;;;;14.13;8.10;;;;;;;8.54;89.30;101270.72;6240627;23;20031;-70
2022/04/15 00:21:16;;;;;;;18.80;9.18;;;;;;;8.49;90.26;101271.44;6215908;23;20649;-69
2022/04/15 00:23:42;;;;;;;17.38;8.43;;;;;;;8.43;89.99;101266.88;6238860;23;20008;-72
2022/04/15 00:26:07;;;;;;;14.70;7.68;;;;;;;8.38;90.52;101270.31;6187879;23;20146;-70
2022/04/15 00:28:34;;;;;;;12.98;6.63;;;;;;;8.33;89.92;101266.59;6212591;23;20004;-70
2022/04/15 00:31:00;;;;;;;9.85;5.78;;;;;;;8.26;90.35;101258.50;6238506;23;20012;-72
2022/04/15 00:33:25;;;;;;;12.10;6.00;;;;;;;8.29;90.52;101265.41;6242131;23;20008;-74
2022/04/15 00:35:51;;;;;;;10.98;6.30;;;;;;;8.26;89.61;101260.41;6237541;23;20311;-72
2022/04/15 00:38:17;;;;;;;8.57;4.57;;;;;;;8.23;89.97;101252.69;6241941;23;20058;-74
2022/04/15 00:40:42;;;;;;;5.35;3.67;;;;;;;8.18;90.35;101250.66;6239660;23;20004;-71
2022/04/15 00:43:08;;;;;;;9.95;3.92;;;;;;;8.16;90.41;101256.34;6241385;23;20484;-74
2022/04/15 00:45:33;;;;;;;5.15;3.00;;;;;;;8.10;90.05;101257.25;6215457;23;20081;-71
2022/04/15 00:48:00;;;;;;;5.25;2.97;;;;;;;8.05;90.09;101254.38;6241102;23;20011;-72
2022/04/15 00:50:30;;;;;;;6.07;3.35;;;;;;;8.02;90.16;101252.13;6210358;22;20054;-72
2022/04/15 00:53:01;;;;;;;6.20;3.38;;;;;;;7.97;89.86;101247.38;6237576;23;20083;-72
2022/04/15 00:55:27;;;;;;;3.80;2.80;;;;;;;7.95;89.50;101243.19;6241200;23;20022;-72
2022/04/15 00:58:04;;;;;;;5.38;3.00;;;;;;;7.93;90.02;101250.75;6187668;23;20008;-73
2022/04/15 01:00:32;;;;;;;5.28;3.35;;;;;;;7.91;90.25;101258.31;6244440;23;20445;-73
2022/04/15 01:02:59;;;;;;;5.50;3.33;;;;;;;7.86;89.77;101251.66;6242045;23;20037;-73
2022/04/15 01:05:26;;;;;;;3.90;2.75;;;;;;;7.91;90.58;101261.06;6212330;23;20015;-74
2022/04/15 01:07:56;;;;;;;7.00;2.83;;;;;;;7.92;90.06;101262.72;6240523;23;20083;-73
2022/04/15 01:10:23;;;;;;;4.65;2.83;;;;;;;7.87;90.10;101255.25;6240243;23;20004;-71
2022/04/15 01:12:54;;;;;;;3.58;2.72;;;;;;;7.86;89.45;101257.13;6213622;23;20424;-71
2022/04/15 01:15:22;;;;;;;3.92;2.33;;;;;;;7.84;89.77;101259.25;6214204;23;20011;-71
2022/04/15 01:17:48;;;;;;;4.05;2.40;;;;;;;7.84;89.65;101264.69;6212909;23;20088;-72
2022/04/15 01:20:14;;;;;;;3.88;2.33;;;;;;;7.72;89.69;101242.00;6242071;23;20035;-71
2022/04/15 01:22:45;;;;;;;2.80;2.42;;;;;;;7.77;90.36;101250.31;6218597;23;20015;-71
2022/04/15 01:25:13;;;;;;;3.10;2.45;;;;;;;7.79;90.23;101253.63;6221797;23;20000;-71
2022/04/15 01:27:40;;;;;;;4.13;3.10;;;;;;;7.74;89.61;101248.06;6251321;23;20004;-71
2022/04/15 01:30:11;;;;;;;4.03;3.10;;;;;;;7.76;90.23;101256.81;6256086;23;20007;-70
2022/04/15 01:32:37;;;;;;;4.72;2.85;;;;;;;7.72;90.04;101261.03;6250379;23;20004;-72
2022/04/15 01:35:03;;;;;;;4.65;2.65;;;;;;;7.65;90.37;101254.84;6240568;23;20030;-72
2022/04/15 01:37:30;;;;;;;5.20;3.60;;;;;;;7.59;90.12;101255.75;6212630;23;20015;-72
2022/04/15 01:39:56;;;;;;;4.20;3.17;;;;;;;7.54;89.33;101258.34;6242683;23;20018;-70
2022/04/15 01:42:22;;;;;;;5.15;3.17;;;;;;;7.54;89.71;101261.06;6242415;23;20079;-71
2022/04/15 01:44:47;;;;;;;3.55;2.35;;;;;;;7.47;90.17;101270.09;6214337;23;20415;-72
2022/04/15 01:47:13;;;;;;;5.28;3.00;;;;;;;7.43;90.48;101268.91;6215661;23;20012;-72
2022/04/15 01:49:38;;;;;;;4.85;3.00;;;;;;;7.38;90.13;101274.16;6189462;23;20043;-72
2022/04/15 01:52:05;;;;;;;3.60;2.78;;;;;;;7.37;90.00;101280.66;6242283;23;20024;-72
2022/04/15 01:54:31;;;;;;;5.82;2.90;;;;;;;7.32;89.24;101277.78;6245309;23;20076;-72
2022/04/15 01:56:57;;;;;;;3.40;2.67;;;;;;;7.31;89.61;101287.00;6214942;23;20031;-72
2022/04/15 01:59:23;;;;;;;4.15;2.65;;;;;;;7.31;89.85;101287.00;6215878;23;20422;-71
2022/04/15 02:01:50;;;;;;;3.55;2.42;;;;;;;7.31;89.73;101292.44;6250400;23;20007;-71
2022/04/15 02:04:15;;;;;;;3.15;2.30;;;;;;;7.31;90.28;101292.44;6242757;23;20015;-71
2022/04/15 02:06:42;;;;;;;2.88;2.50;;;;;;;7.29;90.17;101303.56;6217828;23;20646;-71
2022/04/15 02:09:07;;;;;;;3.83;3.17;;;;;;;7.32;90.60;101294.13;6241477;23;20015;-71
2022/04/15 02:11:34;;;;;;;2.85;2.45;;;;;;;7.48;90.22;101298.16;6243403;23;20008;-71
2022/04/15 02:13:59;;;;;;;3.67;2.63;;;;;;;7.72;90.46;101298.34;6243913;23;20004;-71
2022/04/15 02:16:25;;;;;;;3.30;2.92;;;;;;;7.98;89.36;101302.66;6235685;23;20091;-72
2022/04/15 02:18:50;;;;;;;4.10;2.90;;;;;;;8.25;88.43;101305.06;6239059;23;20506;-71
2022/04/15 02:21:16;;;;;;;3.45;2.90;;;;;;;8.45;88.16;101305.66;6240544;23;20032;-71
2022/04/15 02:23:41;;;;;;;4.40;3.20;;;;;;;8.60;87.42;101305.28;6189235;23;20019;-70
2022/04/15 02:26:07;;;;;;;3.65;2.72;;;;;;;8.69;86.91;101298.41;6213109;23;20012;-71
2022/04/15 02:28:32;;;;;;;3.53;2.70;;;;;;;8.72;86.77;101289.78;6213525;23;20012;-71
2022/04/15 02:30:57;;;;;;;3.75;2.72;;;;;;;8.87;86.34;101307.59;6238136;23;20378;-71
2022/04/15 02:33:23;;;;;;;4.20;2.90;;;;;;;8.95;86.67;101300.97;6213068;23;20038;-71
2022/04/15 02:35:49;;;;;;;3.15;2.58;;;;;;;8.99;85.77;101294.00;6240778;23;20050;-71
2022/04/15 02:38:15;;;;;;;3.80;2.90;;;;;;;9.05;85.50;101295.78;6241152;23;20312;-73
2022/04/15 02:40:40;;;;;;;4.28;3.15;;;;;;;9.05;84.76;101290.31;6216452;23;20008;-72
2022/04/15 02:43:06;;;;;;;3.50;2.60;;;;;;;9.09;85.13;101296.97;6241965;23;20009;-73
2022/04/15 02:45:32;;;;;;;4.43;3.35;;;;;;;9.05;85.27;101284.84;6240885;23;20008;-72
2022/04/15 02:47:57;;;;;;;4.78;2.88;;;;;;;9.09;85.04;101286.88;6214933;23;20012;-72
2022/04/15 02:50:23;;;;;;;3.92;2.78;;;;;;;9.06;84.97;101278.34;6241185;23;20400;-72
2022/04/15 02:52:49;;;;;;;3.30;2.25;;;;;;;9.02;84.93;101286.19;6240357;23;20034;-73
2022/04/15 02:55:15;;;;;;;3.20;2.25;;;;;;;9.00;84.91;101279.28;6242864;23;20315;-71
2022/04/15 02:57:41;;;;;;;3.63;2.60;;;;;;;8.92;85.54;101280.44;6214894;23;20019;-71
2022/04/15 03:00:08;;;;;;;2.10;1.83;;;;;;;8.84;85.45;101278.88;6191495;23;20023;-72
2022/04/15 03:02:34;;;;;;;3.17;2.28;;;;;;;8.79;85.40;101281.50;6216088;23;20016;-71
2022/04/15 03:05:00;;;;;;;2.97;2.22;;;;;;;8.74;85.26;101292.25;6212599;23;20761;-73
2022/04/15 03:07:26;;;;;;;4.35;2.78;;;;;;;8.69;85.75;101287.50;6214668;23;20031;-73
2022/04/15 03:09:51;;;;;;;5.10;3.50;;;;;;;8.64;85.63;101283.81;6241051;23;20415;-71
2022/04/15 03:12:17;;;;;;;3.55;2.53;;;;;;;8.54;85.70;101274.31;6213164;23;20012;-71
2022/04/15 03:14:42;;;;;;;3.70;2.50;;;;;;;8.46;86.22;101271.91;6189947;23;20466;-71
2022/04/15 03:17:08;;;;;;;5.13;3.55;;;;;;;8.31;85.77;101265.97;6239419;23;20073;-72
2022/04/15 03:19:34;;;;;;;5.28;3.38;;;;;;;8.26;86.32;101263.13;6214534;23;20000;-70
2022/04/15 03:22:00;;;;;;;7.53;5.28;;;;;;;8.15;86.07;101251.94;6238583;23;20004;-71
2022/04/15 03:24:25;;;;;;;6.75;4.40;;;;;;;8.05;87.26;101254.38;6240814;23;20008;-72
2022/04/15 03:26:51;;;;;;;5.70;3.50;;;;;;;8.00;87.19;101256.94;6214788;23;20339;-71
2022/04/15 03:29:16;;;;;;;4.93;3.22;;;;;;;7.96;87.73;101258.50;6240684;23;20134;-70
2022/04/15 03:31:42;;;;;;;4.35;3.05;;;;;;;7.91;87.63;101263.78;6214216;23;20328;-72
2022/04/15 03:34:07;;;;;;;6.30;4.03;;;;;;;7.82;87.59;101261.34;6236679;23;20012;-71
2022/04/15 03:36:33;;;;;;;6.70;4.65;;;;;;;7.86;87.40;101275.34;6223899;23;20068;-71
2022/04/15 03:38:58;;;;;;;6.03;4.30;;;;;;;7.83;88.20;101273.91;6254221;23;20004;-73
2022/04/15 03:41:23;;;;;;;7.95;4.97;;;;;;;7.78;88.06;101281.94;6256727;23;20008;-72
2022/04/15 03:43:50;;;;;;;7.75;5.13;;;;;;;7.75;88.43;101276.09;6253461;23;20400;-71
2022/04/15 03:46:16;;;;;;;6.85;5.45;;;;;;;7.74;88.98;101275.28;6221217;23;20015;-73
2022/04/15 03:48:41;;;;;;;5.93;5.20;;;;;;;7.71;89.17;101283.91;6241745;23;20622;-73
2022/04/15 03:51:11;;;;;;;7.93;5.80;;;;;;;7.65;89.86;101290.22;6213646;23;20024;-73
2022/04/15 03:53:37;;;;;;;8.85;5.53;;;;;;;7.61;89.82;101284.41;6215327;23;20015;-72
2022/04/15 03:56:03;;;;;;;7.03;4.85;;;;;;;7.56;90.17;101288.88;6241499;23;20004;-71
2022/04/15 03:58:29;;;;;;;6.85;4.63;;;;;;;7.50;90.10;101286.00;6241257;23;20004;-73
2022/04/15 04:00:54;;;;;;;9.48;4.88;;;;;;;7.43;90.16;101282.50;6214771;23;20008;-72
2022/04/15 04:03:21;;;;;;;7.22;4.63;;;;;;;7.42;90.54;101288.19;6241361;23;20007;-72
2022/04/15 04:05:46;;;;;;;6.72;4.75;;;;;;;7.40;90.52;101284.84;6239943;23;20004;-71
2022/04/15 04:08:11;;;;;;;6.43;4.63;;;;;;;7.28;90.64;101282.00;6238946;23;20000;-72
2022/04/15 04:10:37;;;;;;;6.32;4.22;;;;;;;7.27;91.00;101286.63;6190194;23;20008;-72
2022/04/15 04:13:03;;;;;;;5.30;3.53;;;;;;;7.26;91.06;101292.31;6213887;23;20019;-71
2022/04/15 04:15:30;;;;;;;3.70;2.72;;;;;;;7.24;90.50;101286.22;6212864;23;20541;-70
2022/04/15 04:17:56;;;;;;;3.53;2.08;;;;;;;7.26;91.34;101295.84;6237853;23;20008;-72
2022/04/15 04:20:22;;;;;;;3.15;2.28;;;;;;;7.27;90.94;101294.78;6240128;23;20022;-71
2022/04/15 04:22:48;;;;;;;3.88;2.70;;;;;;;7.30;91.27;101297.06;6236364;23;20016;-71
2022/04/15 04:25:13;;;;;;;3.50;2.75;;;;;;;7.29;90.73;101297.28;6237515;23;20011;-71
2022/04/15 04:27:40;;;;;;;4.85;3.33;;;;;;;7.27;90.90;101297.50;6235376;23;20018;-71
2022/04/15 04:30:07;;;;;;;4.30;3.13;;;;;;;7.25;90.95;101290.63;6211667;23;20410;-71
2022/04/15 04:32:32;;;;;;;5.50;3.40;;;;;;;7.20;91.15;101301.31;6210169;23;20066;-72
2022/04/15 04:34:58;;;;;;;5.20;2.90;;;;;;;7.16;90.98;101301.78;6235020;23;20419;-71
2022/04/15 04:37:23;;;;;;;4.68;2.92;;;;;;;7.07;91.54;101286.78;6240483;23;20005;-71
2022/04/15 04:39:49;;;;;;;3.72;2.85;;;;;;;7.05;90.76;101299.75;6236583;23;20031;-72
2022/04/15 04:42:15;;;;;;;4.75;3.05;;;;;;;6.96;91.83;101293.75;6241510;23;20549;-71
2022/04/15 04:44:41;;;;;;;3.92;2.70;;;;;;;6.91;91.99;101287.34;6240842;23;20015;-71
2022/04/15 04:47:08;;;;;;;4.60;2.83;;;;;;;6.86;91.55;101285.25;6240221;23;20009;-73
2022/04/15 04:49:34;;;;;;;3.55;2.75;;;;;;;6.86;92.26;101292.59;6237210;23;20007;-72
2022/04/15 04:51:59;;;;;;;4.47;2.28;;;;;;;6.84;91.35;101286.56;6239005;23;20039;-73
2022/04/15 04:54:25;;;;;;;3.42;2.55;;;;;;;6.80;91.77;101284.28;6239854;23;20063;-71
2022/04/15 04:56:50;;;;;;;2.95;1.80;;;;;;;6.74;92.50;101282.41;6187966;23;20008;-71
2022/04/15 04:59:16;;;;;;;2.72;2.10;;;;;;;6.69;92.33;101279.53;6239369;23;20004;-71
2022/04/15 05:01:41;;;;;;;2.83;2.13;;;;;;;6.68;92.49;101285.19;6241558;23;20075;-72
2022/04/15 05:04:07;;;;;;;2.42;1.83;;;;;;;6.64;92.55;101290.22;6214215;23;20062;-71
2022/04/15 05:06:32;;;;;;;2.58;2.25;;;;;;;6.60;92.00;101287.13;6236700;23;20019;-72
2022/04/15 05:08:58;;;;;;;3.10;2.20;;;;;;;6.57;92.30;101298.44;6239157;23;20004;-72
2022/04/15 05:11:23;;;;;;;3.55;2.30;;;;;;;6.57;93.05;101297.59;6239657;23;20015;-72
2022/04/15 05:13:50;;;;;;;3.72;2.72;;;;;;;6.59;91.87;101293.59;6216888;23;20018;-71
2022/04/15 05:16:16;;;;;;;5.32;2.75;;;;;;;6.57;91.97;101286.72;6216136;23;20027;-69
2022/04/15 05:18:41;;;;;;;3.42;2.78;;;;;;;6.58;92.76;101286.50;6211214;23;20008;-71
2022/04/15 05:21:07;;;;;;;3.00;1.95;;;;;;;6.66;91.77;101296.28;6215702;23;20011;-72
2022/04/15 05:23:33;;;;;;;3.15;1.85;;;;;;;6.70;92.21;101297.53;6213787;23;20081;-70
2022/04/15 05:25:58;;;;;;;3.22;1.90;;;;;;;6.73;92.49;101301.66;6241655;23;20579;-70
2022/04/15 05:28:24;;;;;;;2.83;2.03;;;;;;;6.79;92.41;101311.66;6213785;23;20051;-71
2022/04/15 05:30:49;;;;;;;2.97;2.30;;;;;;;6.82;91.86;101313.97;6239178;23;20008;-71
2022/04/15 05:33:17;;;;;;;2.35;1.77;;;;;;;6.91;91.75;101311.81;6218153;23;20012;-72
2022/04/15 05:35:42;;;;;;;2.67;2.00;;;;;;;6.99;91.85;101317.81;6237510;23;20008;-71
2022/04/15 05:38:08;;;;;;;3.20;2.47;;;;;;;7.05;92.11;101329.69;6216408;23;20112;-73
2022/04/15 05:40:34;;;;;;;2.58;2.28;;;;;;;7.07;91.18;101318.59;6241683;23;20083;-70
2022/04/15 05:42:59;;;;;;;2.00;1.60;;;;;;;7.10;91.52;101321.72;6188050;23;20012;-71
2022/04/15 05:45:25;;;;;;;1.65;1.35;;;;;;;7.12;90.65;101316.03;6214557;23;20008;-73
2022/04/15 05:47:53;;;;;;;2.00;1.80;;;;;;;7.19;91.34;101318.72;6215197;23;20019;-71
2022/04/15 05:50:21;;;;;;;2.13;1.67;;;;;;;7.23;91.73;101322.66;6238130;23;20058;-70
2022/04/15 05:52:47;;;;;;;3.10;2.05;;;;;;;7.27;91.30;101318.44;6243441;23;20008;-72
2022/04/15 05:55:12;;;;;;;2.08;1.65;;;;;;;7.30;91.03;101317.97;6241990;23;20436;-68
2022/04/15 05:57:38;;;;;;;2.10;1.73;;;;;;;7.36;91.18;101321.69;6240561;23;20000;-69
2022/04/15 06:00:05;;;;;;;2.38;1.70;;;;;;;7.39;90.34;101321.25;6214475;23;20414;-71
2022/04/15 06:02:31;;;;;;;2.47;1.63;;;;;;;7.37;90.83;101324.19;6212075;23;20028;-71
2022/04/15 06:04:56;;;;;;;2.85;1.80;;;;;;;7.38;90.19;101331.31;6243209;23;20441;-70
2022/04/15 06:07:21;;;;;;;2.28;2.08;;;;;;;7.43;90.46;101323.34;6187799;23;20008;-71
2022/04/15 06:09:47;;;;;;;2.47;2.00;;;;;;;7.47;90.05;101329.97;6239900;23;20451;-69
2022/04/15 06:12:12;;;;;;;4.70;2.10;;;;;;;7.49;89.80;101333.31;6215362;23;20046;-69
2022/04/15 06:14:38;;;;;;;2.50;1.85;;;;;;;7.54;89.61;101329.09;6239382;23;20012;-69
2022/04/15 06:17:04;;;;;;;1.75;1.50;;;;;;;7.58;90.52;101335.75;6242419;23;20007;-71
2022/04/15 06:19:30;;;;;;;2.60;2.15;;;;;;;7.68;89.64;101336.06;6240012;23;20330;-72
2022/04/15 06:21:56;;;;;;;2.83;2.00;;;;;;;7.71;89.32;101334.78;6211243;23;20015;-73
2022/04/15 06:24:22;;;;;;;1.55;1.40;;;;;;;7.83;89.48;101344.72;6215139;23;20008;-73
2022/04/15 06:26:47;;;;;;;1.27;1.17;;;;;;;7.91;89.36;101350.94;6240913;23;20036;-71
2022/04/15 06:29:13;;;;;;;1.23;1.13;;;;;;;8.02;88.84;101352.91;6242571;23;20008;-71
2022/04/15 06:31:38;;;;;;;1.40;1.17;;;;;;;8.07;88.11;101354.94;6237760;23;20276;-71
2022/04/15 06:34:04;;;;;;;1.10;1.00;;;;;;;8.13;88.36;101360.34;6214525;23;20008;-72
2022/04/15 06:36:29;;;;;;;0.75;0.70;;;;;;;8.23;88.04;101365.25;6240330;23;20000;-72
2022/04/15 06:38:55;;;;;;;0.73;0.73;;;;;;;8.26;87.54;101364.78;6185196;23;20514;-70
2022/04/15 06:41:20;;;;;;;0.80;0.80;;;;;;;8.35;87.80;101370.75;6240120;23;20083;-70
2022/04/15 06:43:46;;;;;;;1.80;1.42;;;;;;;8.43;87.63;101370.47;6240672;23;20008;-71
2022/04/15 06:46:11;;;;;;;1.50;1.40;;;;;;;8.53;87.05;101373.50;6185795;23;20008;-72
2022/04/15 06:48:37;;;;;;;1.52;1.33;;;;;;;8.61;87.01;101374.25;6211806;23;20008;-70
2022/04/15 06:51:03;;;;;;;1.10;1.00;;;;;;;8.69;87.32;101373.94;6211424;23;20030;-71
2022/04/15 06:53:29;;;;;;;1.45;1.20;;;;;;;8.85;86.63;101389.66;6210879;23;20065;-72
2022/04/15 06:55:54;;;;;;;1.75;1.40;;;;;;;8.99;86.96;101381.28;6240482;23;20717;-72
2022/04/15 06:58:20;;;;;;;1.48;1.25;;;;;;;9.08;86.80;101382.63;6238350;23;20172;-72
2022/04/15 07:00:46;;;;;;;1.90;1.40;;;;;;;9.25;86.21;101402.72;6214029;23;20008;-70
2022/04/15 07:03:12;;;;;;;1.70;1.10;;;;;;;9.35;85.73;101401.34;6209592;23;20058;-70
2022/04/15 07:05:39;;;;;;;2.25;1.65;;;;;;;9.43;85.24;101395.50;6236140;23;20000;-71
2022/04/15 07:08:07;;;;;;;3.00;1.50;;;;;;;9.54;85.76;101394.72;6185018;23;20008;-71
2022/04/15 07:10:35;;;;;;;3.40;2.20;;;;;;;9.66;85.78;101391.16;6209380;23;20335;-70
2022/04/15 07:13:01;;;;;;;2.60;2.15;;;;;;;9.78;85.45;101403.78;6212098;23;20509;-71
2022/04/15 07:15:28;;;;;;;4.18;2.33;;;;;;;9.81;84.63;101402.44;6212750;23;20012;-71
2022/04/15 07:17:55;;;;;;;2.95;1.98;;;;;;;9.81;84.69;101407.91;6214435;23;20034;-72
2022/04/15 07:20:23;;;;;;;3.05;2.03;;;;;;;9.87;84.74;101406.97;6214316;23;20086;-70
2022/04/15 07:22:57;;;;;;;2.92;2.17;;;;;;;9.93;84.37;101394.28;6187890;23;20080;-72
2022/04/15 07:25:25;;;;;;;3.63;2.30;;;;;;;10.06;84.24;101394.03;6239688;23;20073;-70
2022/04/15 07:27:51;;;;;;;3.08;2.65;;;;;;;10.19;84.12;101387.47;6216336;23;20011;-72
2022/04/15 07:30:17;;;;;;;5.07;2.90;;;;;;;10.35;83.39;101401.50;6220420;23;20000;-70
2022/04/15 07:32:44;;;;;;;2.47;2.15;;;;;;;10.38;83.36;101390.91;6239626;23;20004;-70
2022/04/15 07:35:09;;;;;;;4.25;2.70;;;;;;;10.47;83.10;101388.66;6239261;23;20034;-72
2022/04/15 07:37:35;;;;;;;2.67;2.10;;;;;;;10.64;82.81;101394.16;6238445;23;20004;-74
2022/04/15 07:40:19;;;;;;;;;;;;;;;;;;;;;
2022/04/15 07:42:44;;;;;;;2.17;1.98;;;;;;;10.91;82.27;101394.44;6218199;23;20088;-71
2022/04/15 07:45:12;;;;;;;5.50;3.25;;;;;;;10.98;81.14;101384.16;6239108;23;20251;-71
2022/04/15 07:47:38;;;;;;;6.03;2.83;;;;;;;11.10;81.70;101400.53;6213491;23;20008;-71
2022/04/15 07:50:03;;;;;;;4.40;2.42;;;;;;;11.23;81.12;101398.53;6186885;23;20012;-71
2022/04/15 07:52:40;;;;;;;3.95;2.95;;;;;;;11.35;80.83;101388.38;6211379;23;20081;-70
2022/04/15 07:55:16;;;;;;;5.65;3.78;;;;;;;11.54;80.33;101380.75;6214729;23;20011;-72
2022/04/15 07:57:44;;;;;;;7.63;4.03;;;;;;;11.74;80.38;101390.34;6200294;23;20027;-72
2022/04/15 08:00:15;;;;;;;3.97;3.00;;;;;;;11.93;80.31;101397.28;6233064;23;20000;-72
2022/04/15 08:02:50;;;;;;;8.10;3.83;;;;;;;12.12;79.35;101394.22;6258164;23;20620;-71
2022/04/15 08:05:25;;;;;;;5.25;3.25;;;;;;;12.27;78.70;101383.47;6216235;23;20012;-72
2022/04/15 08:07:58;;;;;;;7.50;3.92;;;;;;;12.47;78.10;101382.94;6213964;23;20515;-71
2022/04/15 08:10:24;;;;;;;6.60;4.40;;;;;;;13.03;77.14;101412.91;6241686;23;20004;-73
2022/04/15 08:12:49;;;;;;;4.82;3.30;;;;;;;13.43;75.69;101391.63;6241761;23;20469;-71
2022/04/15 08:15:17;;;;;;;6.05;2.78;;;;;;;13.93;74.08;101393.13;6214377;23;20012;-72
2022/04/15 08:17:46;;;;;;;5.75;3.63;;;;;;;13.97;72.54;101385.16;6240615;23;20000;-69
2022/04/15 08:20:14;;;;;;;6.90;4.32;;;;;;;14.14;72.85;101418.81;6215488;23;20124;-71
2022/04/15 08:22:42;;;;;;;13.15;4.10;;;;;;;14.38;72.40;101414.81;6211774;23;20015;-70
2022/04/15 08:25:10;;;;;;;5.82;4.07;;;;;;;15.13;69.60;101398.84;6213626;23;20004;-71
2022/04/15 08:27:38;;;;;;;5.68;3.92;;;;;;;16.50;65.88;101403.72;6213401;23;20008;-71
2022/04/15 08:30:16;;;;;;;4.88;3.25;;;;;;;18.86;58.63;101416.66;6215149;23;20007;-71
2022/04/15 08:32:54;;;;;;;4.70;3.03;;;;;;;21.33;51.25;101400.94;6216039;23;20036;-72
2022/04/15 08:35:22;;;;;;;5.13;3.10;;;;;;;23.15;45.98;101427.19;6243125;23;20001;-73
2022/04/15 08:37:48;;;;;;;4.50;2.63;;;;;;;24.47;43.10;101416.56;6237707;23;20007;-75
2022/04/15 08:40:15;;;;;;;2.92;2.30;;;;;;;25.56;40.37;101433.59;6214778;23;20012;-71
2022/04/15 08:42:46;;;;;;;3.35;2.10;;;;;;;26.53;38.48;101422.09;6191345;23;20022;-71
2022/04/15 08:45:14;;;;;;;3.88;2.22;;;;;;;27.43;35.61;101435.31;6213249;23;20010;-72
2022/04/15 08:47:45;;;;;;;2.53;1.67;;;;;;;28.44;34.43;101429.56;6214308;23;20431;-70
2022/04/15 08:50:14;;;;;;;6.47;2.15;;;;;;;29.24;31.23;101433.84;6206013;23;20004;-73
2022/04/15 08:52:48;;;;;;;5.72;1.55;;;;;;;29.58;31.64;101424.84;6217289;23;20023;-72
2022/04/15 08:55:13;;;;;;;6.72;1.40;;;;;;;30.38;31.52;101447.66;6241441;23;20462;-73
2022/04/15 08:57:39;;;;;;;5.00;1.70;;;;;;;30.79;30.04;101447.91;6241941;23;20163;-72
2022/04/15 09:00:08;;;;;;;4.13;1.73;;;;;;;30.78;28.70;101446.31;6215100;23;20008;-73
2022/04/15 09:02:37;;;;;;;3.60;1.48;;;;;;;31.20;29.30;101460.63;6215483;23;20012;-71
2022/04/15 09:05:06;;;;;;;1.42;1.10;;;;;;;31.05;29.19;101453.97;6214930;23;20008;-70
2022/04/15 09:07:33;;;;;;;3.63;1.65;;;;;;;31.33;28.24;101442.22;6242163;23;20035;-73
2022/04/15 09:10:00;;;;;;;1.85;1.00;;;;;;;32.75;27.78;101451.69;6213087;23;20490;-72
2022/04/15 09:12:29;;;;;;;1.67;0.90;;;;;;;34.54;25.32;101467.66;6215494;23;20019;-71
2022/04/15 09:15:14;;;;;;;2.22;1.30;;;;;;;35.88;22.09;101468.06;6213735;23;20005;-71
2022/04/15 09:17:42;;;;;;;1.95;1.10;;;;;;;36.46;22.25;101467.63;6247932;23;20086;-71
2022/04/15 09:20:12;;;;;;;2.58;1.40;;;;;;;36.69;22.13;101453.53;6245580;23;20008;-70
2022/04/15 09:22:38;;;;;;;2.33;1.10;;;;;;;36.10;22.68;101457.31;6250587;23;20004;-70
2022/04/15 09:25:05;;;;;;;1.83;1.20;;;;;;;36.08;22.28;101458.97;6258653;23;20060;-69
2022/04/15 09:27:30;;;;;;;1.88;0.88;;;;;;;36.82;21.45;101451.00;6231785;23;20019;-70
2022/04/15 09:29:56;;;;;;;2.17;0.90;;;;;;;37.54;21.43;101458.69;6255813;23;20307;-70
2022/04/15 09:32:24;;;;;;;2.25;1.10;;;;;;;37.49;20.90;101452.66;6236085;23;20008;-71
2022/04/15 09:34:55;;;;;;;2.15;1.13;;;;;;;37.89;18.82;101452.91;6243532;23;20058;-71
2022/04/15 09:37:23;;;;;;;3.13;1.35;;;;;;;37.71;18.24;101453.16;6242069;23;20019;-71
2022/04/15 09:40:09;;;;;;;2.42;1.23;;;;;;;38.38;18.55;101466.81;6219665;23;20010;-72
2022/04/15 09:42:35;;;;;;;1.40;0.63;;;;;;;39.49;18.22;101460.16;6241903;23;20000;-72
2022/04/15 09:45:18;;;;;;;1.80;0.77;;;;;;;40.04;18.44;101467.13;6241033;23;20537;-70
2022/04/15 09:47:53;;;;;;;1.33;0.65;;;;;;;40.57;17.58;101463.34;6215648;23;20000;-75
2022/04/15 09:50:25;;;;;;;1.30;0.75;;;;;;;39.97;16.36;101461.53;6237913;23;20110;-71
2022/04/15 09:52:51;;;;;;;1.45;0.70;;;;;;;39.05;16.83;101452.50;6242676;23;20039;-70
2022/04/15 09:55:21;;;;;;;1.58;0.68;;;;;;;38.83;18.23;101463.56;6241021;23;20042;-70
2022/04/15 09:57:50;;;;;;;1.73;0.80;;;;;;;38.29;17.86;101464.53;6240544;23;20071;-70
2022/04/15 10:00:18;;;;;;;1.10;0.60;;;;;;;37.71;18.64;101465.38;6240714;23;20004;-71
2022/04/15 10:02:45;;;;;;;4.70;0.93;;;;;;;37.64;18.10;101470.38;6242147;23;19996;-70
2022/04/15 10:05:14;;;;;;;2.22;0.77;;;;;;;38.40;18.31;101459.41;6238063;23;20000;-71
2022/04/15 10:07:40;;;;;;;1.02;0.57;;;;;;;39.34;17.47;101459.69;6241024;23;20095;-70
2022/04/15 10:10:08;;;;;;;1.90;0.70;;;;;;;38.89;17.76;101453.22;6211251;23;20016;-72
2022/04/15 10:12:39;;;;;;;0.77;0.60;;;;;;;38.52;17.86;101454.31;6236763;23;20426;-71
2022/04/15 10:15:06;;;;;;;2.00;0.98;;;;;;;38.76;17.70;101455.13;6210528;23;20015;-70
2022/04/15 10:17:34;;;;;;;1.88;0.60;;;;;;;39.28;17.04;101454.50;6212575;23;20003;-72
2022/04/15 10:20:01;;;;;;;1.63;0.60;;;;;;;40.73;16.56;101451.81;6189819;23;20028;-71
2022/04/15 10:22:26;;;;;;;0.73;0.40;;;;;;;42.00;15.24;101460.34;6241358;23;20377;-70
2022/04/15 10:24:52;;;;;;;2.83;0.35;;;;;;;41.83;14.62;101457.59;6241240;23;20028;-71
2022/04/15 10:27:26;;;;;;;1.75;0.85;;;;;;;40.72;14.00;101450.22;6240603;23;20092;-70
2022/04/15 10:30:21;;;;;;;1.35;0.60;;;;;;;40.17;14.27;101437.75;6243557;23;20008;-71
2022/04/15 10:32:52;;;;;;;2.47;0.63;;;;;;;38.60;16.07;101441.53;6221128;23;20078;-72
2022/04/15 10:35:23;;;;;;;0.77;0.35;;;;;;;39.14;15.23;101445.44;6213778;23;20008;-73
2022/04/15 10:37:55;;;;;;;1.05;0.60;;;;;;;38.48;15.64;101436.44;6241838;23;20081;-73
2022/04/15 10:40:29;;;;;;;0.75;0.43;;;;;;;38.18;16.08;101444.66;6214507;23;20541;-70
2022/04/15 10:43:17;;;;;;;2.17;0.47;;;;;;;38.37;15.62;101430.91;6238627;23;20323;-72
2022/04/15 10:45:43;;;;;;;4.28;0.40;;;;;;;39.56;14.65;101439.97;6211155;23;20070;-71
2022/04/15 10:48:08;;;;;;;0.60;0.30;;;;;;;39.56;15.29;101426.53;6162075;23;20339;-70
2022/04/15 10:50:35;;;;;;;0.93;0.55;;;;;;;39.15;15.76;101429.84;6213438;23;20028;-71
2022/04/15 10:53:24;;;;;;;1.00;0.50;;;;;;;39.41;14.90;101423.16;6188327;23;20004;-71
2022/04/15 10:55:52;;;;;;;0.80;0.40;;;;;;;40.49;14.96;101442.66;6213519;23;20500;-70
2022/04/15 10:58:19;;;;;;;3.17;0.70;;;;;;;40.28;14.01;101432.56;6239147;23;20477;-71
2022/04/15 11:01:15;;;;;;;1.60;0.80;;;;;;;39.99;13.80;101444.72;6241047;23;20038;-72
2022/04/15 11:03:42;;;;;;;1.60;0.50;;;;;;;40.37;13.29;101429.84;6239881;23;20015;-72
2022/04/15 11:06:09;;;;;;;0.55;0.20;;;;;;;41.12;13.00;101426.16;6212595;23;20008;-73
2022/04/15 11:08:46;;;;;;;1.05;0.40;;;;;;;41.65;13.21;101417.16;6248985;23;20008;-70
2022/04/15 11:11:11;;;;;;;1.40;0.43;;;;;;;42.73;12.80;101419.25;6238776;23;20008;-71
2022/04/15 11:13:39;;;;;;;1.98;0.38;;;;;;;43.11;11.87;101421.13;6239145;23;20019;-70
2022/04/15 11:16:14;;;;;;;2.80;0.60;;;;;;;42.60;11.34;101409.88;6240281;23;19996;-70
2022/04/15 11:18:53;;;;;;;0.47;0.38;;;;;;;42.99;11.87;101414.16;6212377;23;20031;-70
2022/04/15 11:21:35;;;;;;;0.60;0.30;;;;;;;43.53;11.85;101412.06;6238037;23;20078;-71
2022/04/15 11:24:12;;;;;;;0.40;0.30;;;;;;;42.09;11.66;101423.09;6216372;23;20015;-71
2022/04/15 11:26:44;;;;;;;2.45;0.52;;;;;;;41.50;11.77;101413.94;6242319;23;20309;-69
2022/04/15 11:29:11;;;;;;;1.57;0.50;;;;;;;40.51;12.36;101402.91;6215480;23;20011;-73
2022/04/15 11:31:46;;;;;;;1.63;0.40;;;;;;;39.89;12.85;101414.28;6218901;23;20069;-69
2022/04/15 11:34:17;;;;;;;1.60;0.30;;;;;;;39.86;12.77;101410.25;6240140;23;20004;-70